• Join FlightAware (Why Join?)
  • Login
  • US Flag 
12:26AM EDT


 

Airport Tracker/Info


-or-


 

Live Flight TrackerFlight Track Log ✈ UAL4115 ✈ 17-Jun-2013 ✈ KXNA - KIAH

Flight Track Log - Related Links

Times and Time Zones

All times are in EDT time to prevent confusion due to time zone crossing. See the UAL4115 flight status page for this flight to view local times or setup timezone preferences in your user account.

Time Position Orientation Groundspeed Altitude Reporting Facility
EDT Latitude Longitude Course Direction KTS MPH feet Rate Location/Type
06:02PM 36.3642 -94.3978 301° West 211 243 5,500  Level Memphis Center
06:03PM 36.3261 -94.4811 240° Southwest 192 221 8,400 2,520 Climbing Memphis Center
06:04PM 36.2856 -94.5667 240° Southwest 235 270 10,600 1,380 Climbing Memphis Center
06:05PM 36.2406 -94.6672 241° Southwest 286 329 11,200 900 Climbing Memphis Center
06:06PM 36.1886 -94.7800 240° Southwest 343 395 12,500 1,500 Climbing Memphis Center
06:07PM 36.0427 -94.9351 244° Southwest  Level FlightAware Approximate
06:07PM 36.1364 -94.8956 241° Southwest 370 426 14,300  Level Memphis Center
06:10PM 36.0397 -95.1117 241° Southwest 374 430 17,500 1,440 Climbing Fort Worth Center
06:11PM 35.9878 -95.2258 241° Southwest 374 430 18,800 1,140 Climbing Fort Worth Center
06:12PM 35.9375 -95.3375 241° Southwest 379 436 19,800 1,200 Climbing Fort Worth Center
06:13PM 35.8575 -95.4189 220° Southwest 377 434 21,200 1,500 Climbing Fort Worth Center
06:14PM 35.7561 -95.4725 203° Southwest 377 434 22,900 1,500 Climbing Fort Worth Center
06:16PM 35.5658 -95.5711 203° Southwest 377 434 25,800 1,320 Climbing Fort Worth Center
06:17PM 35.4706 -95.6192 202° Southwest 377 434 27,000 1,200 Climbing Fort Worth Center
06:18PM 35.3650 -95.6750 203° Southwest 372 428 28,200 1,200 Climbing Fort Worth Center
06:19PM 35.2678 -95.7253 203° Southwest 372 428 29,400 1,140 Climbing Fort Worth Center
06:20PM 35.1703 -95.7728 202° Southwest 377 434 30,500 1,020 Climbing Fort Worth Center
06:21PM 35.0689 -95.8256 203° Southwest 382 440 31,500 720 Climbing Fort Worth Center
06:22PM 34.9714 -95.8756 203° Southwest 382 440 32,000 240 Climbing Fort Worth Center
06:23PM 34.8719 -95.9228 201° Southwest 400 460 32,000  Level Fort Worth Center
06:24PM 34.7619 -95.9803 203° Southwest 423 487 32,000  Level Fort Worth Center
06:25PM 34.6478 -96.0378 203° Southwest 435 501 32,000  Level Fort Worth Center
06:26PM 34.5378 -96.0925 202° Southwest 435 501 32,000  Level Fort Worth Center
06:27PM 34.4278 -96.1472 202° Southwest 435 501 32,000  Level Fort Worth Center
06:28PM 34.3197 -96.2014 202° Southwest 435 501 32,000  Level Fort Worth Center
06:29PM 34.2036 -96.2583 202° Southwest 430 495 32,000  Level Fort Worth Center
06:30PM 34.0914 -96.3175 204° Southwest 430 495 32,000  Level Fort Worth Center
06:31PM 33.9914 -96.3439 192° South 423 487 32,000  Level Fort Worth Center
06:32PM 33.8661 -96.3203 171° South 432 497 32,000  Level Fort Worth Center
06:33PM 33.7406 -96.2944 170° South 444 511 32,000  Level Fort Worth Center
06:34PM 33.6131 -96.2811 175° South 455 524 32,000  Level Fort Worth Center
06:35PM 33.4878 -96.2653 174° South 455 524 32,000  Level Fort Worth Center
06:36PM 33.3603 -96.2519 175° South 460 529 32,000  Level Fort Worth Center
06:37PM 33.2350 -96.2436 177° South 465 535 32,000  Level Fort Worth Center
06:38PM 33.1075 -96.2378 178° South 460 529 32,000  Level Fort Worth Center
06:39PM 32.9864 -96.2319 178° South 455 524 32,000  Level Fort Worth Center
06:40PM 32.8489 -96.2414 183° South 455 524 32,000  Level Fort Worth Center
06:41PM 32.7386 -96.2772 195° South 455 524 32,000  Level Fort Worth Center
06:42PM 32.6197 -96.3011 190° South 450 518 32,000  Level Fort Worth Center
06:43PM 32.4967 -96.3247 189° South 450 518 32,000 -240 Level Fort Worth Center
06:44PM 32.3717 -96.3508 190° South 450 518 31,600 -780 Descending Fort Worth Center
06:45PM 32.2467 -96.3769 190° South 450 518 30,500 -1,200 Descending Fort Worth Center
06:46PM 32.1217 -96.3978 188° South 450 518 29,300 -780 Descending Fort Worth Center
06:47PM 31.9839 -96.4264 190° South 450 518 29,000 -180 Descending Fort Worth Center
06:48PM 31.8378 -96.4544 189° South 455 524 29,000  Level Houston Center
06:49PM 31.7089 -96.4792 189° South 459 528 29,000  Level Houston Center
06:50PM 31.5797 -96.5036 189° South 463 533 29,000 -240 Level Houston Center
06:51PM 31.4483 -96.5067 181° South 474 545 28,600 -960 Descending Houston Center
06:52PM 31.3222 -96.5594 200° South 479 551 27,100 -1,560 Descending Houston Center
06:53PM 31.1994 -96.6131 200° South 469 540 25,400 -1,620 Descending Houston Center
06:54PM 31.0814 -96.6144 181° South 439 505 23,800 -1,680 Descending Houston Center
06:55PM 30.9872 -96.5314 143° Southeast 432 497 22,000 -1,860 Descending Houston Center
06:56PM 30.9006 -96.4242 133° Southeast 441 507 20,100 -1,800 Descending Houston Center
06:57PM 30.7992 -96.2989 133° Southeast 448 516 18,300 -1,620 Descending Houston Center
06:58PM 30.7192 -96.1978 133° Southeast 431 496 16,800 -1,380 Descending Houston Center
06:59PM 30.6422 -96.0972 132° Southeast 413 475 15,500 -1,380 Descending Houston Center
07:00PM 30.5897 -96.0339 134° Southeast 408 470 14,600 -1,200 Descending Houston Center
07:00PM 30.5717 -96.0108 132° Southeast 406 467 14,300 -1,800 Descending Houston Center
07:01PM 30.4861 -95.9053 133° Southeast 385 443 12,100 -1,200 Descending Houston Center
07:02PM 30.4094 -95.8172 135° Southeast 369 425 12,000 -540 Descending Houston Center
07:03PM 30.3422 -95.7475 138° Southeast 309 356 11,000 -1,080 Descending Houston Center
07:04PM 30.2775 -95.6778 137° Southeast 309 356 9,800 -1,380 Descending Houston Center
07:05PM 30.2128 -95.6128 139° Southeast 295 339 8,200 -1,320 Descending Houston Center
07:06PM 30.1550 -95.5522 138° Southeast 273 314 7,100 -600 Descending Houston Center
07:07PM 30.1064 -95.4806 128° Southeast 276 318 7,100 -240 Level Houston Center
07:08PM 30.1064 -95.4081 90° East 254 292 6,700 -540 Descending Houston Center
07:09PM 30.1061 -95.3164 90° East 252 290 6,000 -360 Descending Houston Center
07:10PM 30.1056 -95.2392 90° East 249 287 6,000 -360 Level Houston Center
07:11PM 30.1022 -95.1600 93° East 252 290 5,300 -780 Descending Houston Center
07:12PM 30.0678 -95.1061 126° Southeast 192 221 4,500 -960 Descending Houston Center
07:13PM 30.0258 -95.1064 180° South 180 207 3,500 -1,080 Descending Houston Center